Time;durP1;ratioP1;P1;durP2;ratioP2;P2;SDS_P1;SDS_P2;PMS_P1;PMS_P2;Temp;Humidity;BMP_temperature;BMP_pressure;BME280_temperature;BME280_humidity;BME280_pressure;Samples;Min_cycle;Max_cycle;Signal;HPM_P1;HPM_P2
2021/09/20 00:01:49;;;;;;;1999.90;999.90;;;;;;;14.69;100.00;95456.91;5111751;28;20564;-70
2021/09/20 00:04:18;;;;;;;1999.90;999.90;;;;;;;14.44;100.00;95466.47;5112047;28;20251;-70
2021/09/20 00:06:45;;;;;;;1999.90;999.90;;;;;;;14.33;100.00;95463.44;5111952;28;20244;-70
2021/09/20 00:09:12;;;;;;;1999.90;999.90;;;;;;;14.26;100.00;95457.94;5111735;28;20203;-70
2021/09/20 00:11:40;;;;;;;1999.90;999.90;;;;;;;14.17;100.00;95457.22;5111933;28;20195;-70
2021/09/20 00:14:07;;;;;;;1999.90;999.90;;;;;;;14.09;100.00;95465.88;5111881;28;20264;-70
2021/09/20 00:16:34;;;;;;;1999.90;999.90;;;;;;;13.98;100.00;95465.47;5111465;28;20245;-71
2021/09/20 00:19:01;;;;;;;1999.90;999.90;;;;;;;13.98;100.00;95460.25;5111428;28;20209;-71
2021/09/20 00:21:30;;;;;;;1999.90;999.90;;;;;;;13.93;100.00;95455.19;5108578;28;20202;-70
2021/09/20 00:23:57;;;;;;;1999.90;999.90;;;;;;;13.91;100.00;95456.59;5111479;28;20284;-71
2021/09/20 00:26:24;;;;;;;1999.90;999.90;;;;;;;13.87;100.00;95453.84;5111445;28;20317;-71
2021/09/20 00:28:52;;;;;;;1999.90;999.90;;;;;;;13.84;100.00;95446.66;5111718;28;20328;-70
2021/09/20 00:31:19;;;;;;;1999.90;999.90;;;;;;;13.80;100.00;95453.56;5111399;28;20203;-70
2021/09/20 00:33:46;;;;;;;1999.90;999.90;;;;;;;13.80;100.00;95449.09;5111371;28;20631;-70
2021/09/20 00:36:13;;;;;;;1999.90;999.90;;;;;;;13.85;100.00;95444.81;5111538;28;20199;-70
2021/09/20 00:38:42;;;;;;;1999.90;999.90;;;;;;;13.76;100.00;95442.97;5097350;28;20220;-70
2021/09/20 00:41:09;;;;;;;1999.90;999.90;;;;;;;13.83;100.00;95441.72;5091182;28;20204;-71
2021/09/20 00:43:37;;;;;;;1999.90;999.90;;;;;;;13.89;100.00;95436.00;5094007;28;20238;-72
2021/09/20 00:46:05;;;;;;;1999.90;999.90;;;;;;;13.87;100.00;95438.16;5094321;28;20231;-71
2021/09/20 00:48:33;;;;;;;1999.90;999.90;;;;;;;13.90;100.00;95439.41;5090486;28;20586;-72
2021/09/20 00:51:00;;;;;;;1999.90;999.90;;;;;;;13.85;100.00;95436.97;5090584;28;20202;-72
2021/09/20 00:53:27;;;;;;;1999.90;999.90;;;;;;;13.83;100.00;95428.66;5090767;28;20606;-72
2021/09/20 00:55:57;;;;;;;1999.90;999.90;;;;;;;13.84;100.00;95432.81;5090852;28;20210;-71
2021/09/20 00:58:24;;;;;;;1999.90;999.90;;;;;;;13.84;100.00;95423.13;5090506;28;20219;-71
2021/09/20 01:00:52;;;;;;;1999.90;999.90;;;;;;;13.88;100.00;95428.47;5090575;28;20215;-71
2021/09/20 01:03:19;;;;;;;1999.90;999.90;;;;;;;13.88;100.00;95428.47;5090496;28;20203;-71
2021/09/20 01:05:46;;;;;;;1999.90;999.90;;;;;;;13.91;100.00;95433.06;5090325;28;20206;-72
2021/09/20 01:08:13;;;;;;;1999.90;999.90;;;;;;;13.97;100.00;95439.66;5090745;28;20204;-72
2021/09/20 01:10:40;;;;;;;1999.90;999.90;;;;;;;13.92;100.00;95442.44;5090575;28;20238;-69
2021/09/20 01:13:09;;;;;;;1999.90;999.90;;;;;;;13.96;100.00;95438.13;5090296;28;20199;-70
2021/09/20 01:15:36;;;;;;;1999.90;999.90;;;;;;;13.91;100.00;95448.75;5090404;28;20206;-70
2021/09/20 01:18:04;;;;;;;1999.90;999.90;;;;;;;13.91;100.00;95449.50;5089862;28;20614;-71
2021/09/20 01:20:31;;;;;;;1999.90;999.90;;;;;;;13.91;100.00;95449.50;5090040;28;20239;-70
2021/09/20 01:23:01;;;;;;;1999.90;999.90;;;;;;;13.94;100.00;95443.69;5090391;28;20253;-71
2021/09/20 01:25:28;;;;;;;1999.90;999.90;;;;;;;14.04;100.00;95438.09;5090188;28;20236;-70
2021/09/20 01:27:56;;;;;;;1999.90;999.90;;;;;;;14.00;100.00;95442.38;5090479;28;20249;-70
2021/09/20 01:30:25;;;;;;;1999.90;999.90;;;;;;;13.97;100.00;95443.03;5090016;28;20195;-71
2021/09/20 01:32:52;;;;;;;1999.90;999.90;;;;;;;13.93;100.00;95438.75;5090346;28;20699;-71
2021/09/20 01:35:21;;;;;;;1999.90;999.90;;;;;;;13.89;100.00;95437.84;5089969;28;20191;-72
2021/09/20 01:37:49;;;;;;;1999.90;999.90;;;;;;;13.78;100.00;95440.06;5095989;28;20227;-71
2021/09/20 01:40:18;;;;;;;1999.90;999.90;;;;;;;13.73;100.00;95438.38;5110328;28;20199;-71
2021/09/20 01:42:45;;;;;;;1999.90;999.90;;;;;;;13.69;100.00;95440.09;5110257;28;20199;-71
2021/09/20 01:45:14;;;;;;;1999.90;999.90;;;;;;;13.69;100.00;95442.72;5110875;28;20187;-72
2021/09/20 01:47:42;;;;;;;1999.90;999.90;;;;;;;13.58;100.00;95441.53;5110548;28;20199;-72
2021/09/20 01:50:11;;;;;;;1999.90;999.90;;;;;;;13.56;100.00;95441.06;5110483;28;20202;-71
2021/09/20 01:52:39;;;;;;;1999.90;999.90;;;;;;;13.61;100.00;95437.50;5110185;28;20199;-72
2021/09/20 01:55:08;;;;;;;1999.90;999.90;;;;;;;13.63;100.00;95449.19;5110082;28;20199;-72
2021/09/20 01:57:37;;;;;;;1999.90;999.90;;;;;;;13.65;100.00;95433.94;5110129;28;20273;-72
2021/09/20 02:00:05;;;;;;;1999.90;999.90;;;;;;;13.60;100.00;95428.91;5113754;28;20191;-71
2021/09/20 02:02:32;;;;;;;1999.90;999.90;;;;;;;13.60;100.00;95436.72;5102260;28;20370;-70
2021/09/20 02:05:00;;;;;;;1999.90;999.90;;;;;;;13.57;100.00;95423.53;5097639;28;20199;-71
2021/09/20 02:07:27;;;;;;;1999.90;999.90;;;;;;;13.60;100.00;95418.44;5113931;27;20195;-71
2021/09/20 02:09:54;;;;;;;1999.90;999.90;;;;;;;13.51;100.00;95428.16;5113215;27;20199;-71
2021/09/20 02:12:21;;;;;;;1999.90;999.90;;;;;;;13.55;100.00;95415.28;5113991;28;20201;-72
2021/09/20 02:14:50;;;;;;;1999.90;999.90;;;;;;;13.52;100.00;95413.28;5114538;28;20199;-73
2021/09/20 02:17:17;;;;;;;1999.90;999.90;;;;;;;13.32;100.00;95418.09;5113891;28;20195;-73
2021/09/20 02:19:44;;;;;;;1999.90;999.90;;;;;;;13.30;100.00;95409.81;5114716;28;20205;-73
2021/09/20 02:22:11;;;;;;;1999.90;999.90;;;;;;;13.30;100.00;95416.88;5115008;28;20213;-72
2021/09/20 02:24:39;;;;;;;1999.90;999.90;;;;;;;13.19;100.00;95418.31;5113245;28;20198;-72
2021/09/20 02:27:07;;;;;;;1999.90;999.90;;;;;;;13.22;100.00;95412.44;5115923;28;20270;-71
2021/09/20 02:29:34;;;;;;;1999.90;999.90;;;;;;;13.29;100.00;95407.53;5113992;28;20195;-71
2021/09/20 02:32:04;;;;;;;1999.90;999.90;;;;;;;13.34;100.00;95397.69;5113958;27;20225;-73
2021/09/20 02:34:31;;;;;;;1999.90;999.90;;;;;;;13.44;100.00;95387.97;5113283;28;20285;-72
2021/09/20 02:36:58;;;;;;;1999.90;999.90;;;;;;;13.46;100.00;95386.56;5113436;28;20195;-72
2021/09/20 02:39:26;;;;;;;1999.90;999.90;;;;;;;13.26;100.00;95389.88;5093651;28;20215;-71
2021/09/20 02:41:53;;;;;;;1999.90;999.90;;;;;;;13.32;100.00;95386.00;5093244;28;20199;-73
2021/09/20 02:44:20;;;;;;;1999.90;999.90;;;;;;;13.45;100.00;95389.50;5093107;28;20192;-72
2021/09/20 02:46:48;;;;;;;1999.90;999.90;;;;;;;13.59;100.00;95383.00;5093343;28;20207;-72
2021/09/20 02:49:17;;;;;;;1999.90;999.90;;;;;;;13.64;100.00;95376.84;5093192;28;20198;-72
2021/09/20 02:51:44;;;;;;;1999.90;999.90;;;;;;;13.68;100.00;95378.50;5093042;28;20203;-71
2021/09/20 02:54:11;;;;;;;1999.90;999.90;;;;;;;13.69;100.00;95395.69;5092816;28;20235;-71
2021/09/20 02:56:39;;;;;;;1999.90;999.90;;;;;;;13.72;100.00;95395.06;5093254;28;20265;-71
2021/09/20 02:59:06;;;;;;;1999.90;999.90;;;;;;;13.69;100.00;95389.72;5092966;28;20344;-72
2021/09/20 03:01:34;;;;;;;1999.90;999.90;;;;;;;13.69;100.00;95385.25;5092538;28;20238;-72
2021/09/20 03:04:01;;;;;;;1999.90;999.90;;;;;;;13.75;100.00;95383.97;5092992;28;20192;-72
2021/09/20 03:06:29;;;;;;;1999.90;999.90;;;;;;;13.79;100.00;95386.75;5092550;28;20763;-71
2021/09/20 03:08:57;;;;;;;1999.90;999.90;;;;;;;13.73;100.00;95383.53;5093012;28;20246;-71
2021/09/20 03:11:24;;;;;;;1999.90;999.90;;;;;;;13.66;100.00;95380.66;5092270;28;20283;-71
2021/09/20 03:13:51;;;;;;;1999.90;999.90;;;;;;;13.63;100.00;95390.97;5092891;28;20195;-71
2021/09/20 03:16:18;;;;;;;1999.90;999.90;;;;;;;13.57;100.00;95395.59;5092757;28;20207;-71
2021/09/20 03:18:45;;;;;;;1999.90;999.90;;;;;;;13.46;100.00;95394.41;5092359;28;20220;-70
2021/09/20 03:21:12;;;;;;;1999.90;999.90;;;;;;;13.37;100.00;95393.69;5092735;28;20208;-70
2021/09/20 03:23:41;;;;;;;1999.90;999.90;;;;;;;13.27;100.00;95400.00;5091978;28;20239;-71
2021/09/20 03:26:08;;;;;;;1999.90;999.90;;;;;;;13.22;100.00;95408.00;5092305;28;20238;-70
2021/09/20 03:28:35;;;;;;;1999.90;999.90;;;;;;;13.28;100.00;95408.59;5092705;28;20644;-72
2021/09/20 03:31:03;;;;;;;1999.90;999.90;;;;;;;13.22;100.00;95392.34;5092783;28;20397;-70
2021/09/20 03:33:30;;;;;;;1999.90;999.90;;;;;;;13.01;100.00;95385.44;5095178;28;20693;-71
2021/09/20 03:35:57;;;;;;;1999.90;999.90;;;;;;;12.97;100.00;95384.53;5097628;28;20191;-71
2021/09/20 03:38:24;;;;;;;1999.90;999.90;;;;;;;12.90;100.00;95404.03;5109147;28;20262;-71
2021/09/20 03:40:53;;;;;;;1999.90;999.90;;;;;;;12.97;100.00;95400.19;5113906;28;20196;-72
2021/09/20 03:43:20;;;;;;;1999.90;999.90;;;;;;;12.98;100.00;95404.34;5112314;27;20207;-72
2021/09/20 03:45:47;;;;;;;1999.90;999.90;;;;;;;13.01;100.00;95409.69;5112193;28;20206;-71
2021/09/20 03:48:14;;;;;;;1999.90;999.90;;;;;;;13.03;100.00;95409.41;5112452;28;20198;-71
2021/09/20 03:50:42;;;;;;;1999.90;999.90;;;;;;;13.09;100.00;95410.78;5111972;28;20716;-72
2021/09/20 03:53:09;;;;;;;1999.90;999.90;;;;;;;13.13;100.00;95406.50;5112456;28;20260;-71
2021/09/20 03:55:37;;;;;;;1999.90;999.90;;;;;;;13.14;100.00;95410.63;5112128;28;20191;-71
2021/09/20 03:58:05;;;;;;;1999.90;999.90;;;;;;;13.10;100.00;95410.44;5112575;28;20227;-71
2021/09/20 04:00:33;;;;;;;1999.90;999.90;;;;;;;13.05;100.00;95405.38;5112503;28;20203;-72
2021/09/20 04:03:00;;;;;;;1999.90;999.90;;;;;;;13.05;100.00;95399.44;5112084;27;20585;-72
2021/09/20 04:05:27;;;;;;;1999.90;999.90;;;;;;;13.06;100.00;95400.94;5111942;28;20264;-72
2021/09/20 04:07:54;;;;;;;1999.90;999.90;;;;;;;13.00;100.00;95407.41;5111652;28;20294;-72
2021/09/20 04:10:22;;;;;;;1999.90;999.90;;;;;;;13.01;100.00;95406.31;5111888;28;20201;-72
2021/09/20 04:12:49;;;;;;;1999.90;999.90;;;;;;;12.95;100.00;95424.75;5111877;28;20413;-71
2021/09/20 04:15:17;;;;;;;1999.90;999.90;;;;;;;12.98;100.00;95427.81;5111820;28;20203;-71
2021/09/20 04:17:45;;;;;;;1999.90;999.90;;;;;;;13.07;100.00;95428.56;5111691;28;20295;-72
2021/09/20 04:20:14;;;;;;;1999.90;999.90;;;;;;;13.00;100.00;95425.69;5111780;28;20650;-72
2021/09/20 04:22:42;;;;;;;1999.90;999.90;;;;;;;13.08;100.00;95424.88;5111646;28;20250;-72
2021/09/20 04:25:11;;;;;;;1999.90;999.90;;;;;;;13.14;100.00;95410.63;5111342;28;20250;-70
2021/09/20 04:27:38;;;;;;;1999.90;999.90;;;;;;;13.26;100.00;95421.94;5111495;28;20203;-71
2021/09/20 04:30:07;;;;;;;1999.90;999.90;;;;;;;13.27;100.00;95420.88;5111102;28;20767;-72
2021/09/20 04:32:36;;;;;;;1999.90;999.90;;;;;;;13.27;100.00;95425.34;5111605;28;20272;-71
2021/09/20 04:35:03;;;;;;;1999.90;999.90;;;;;;;13.42;100.00;95424.81;5109362;28;20198;-72
2021/09/20 04:37:30;;;;;;;1999.90;999.90;;;;;;;13.49;100.00;95425.13;5107804;28;20223;-72
2021/09/20 04:39:58;;;;;;;1999.90;999.90;;;;;;;13.54;100.00;95418.97;5090773;28;20263;-71
2021/09/20 04:42:25;;;;;;;1999.90;999.90;;;;;;;13.42;100.00;95427.44;5090868;28;20246;-70
2021/09/20 04:44:52;;;;;;;1999.90;999.90;;;;;;;13.42;100.00;95421.44;5090684;28;20291;-70
2021/09/20 04:47:19;;;;;;;1999.90;999.90;;;;;;;13.45;100.00;95426.81;5090773;28;20217;-71
2021/09/20 04:49:48;;;;;;;1999.90;999.90;;;;;;;13.49;100.00;95414.69;5090825;28;20199;-71
2021/09/20 04:52:15;;;;;;;1999.90;999.90;;;;;;;13.62;100.00;95410.31;5090899;28;20196;-68
2021/09/20 04:54:43;;;;;;;1999.90;999.90;;;;;;;13.65;100.00;95409.69;5090982;28;20192;-70
2021/09/20 04:57:10;;;;;;;1999.90;999.90;;;;;;;13.63;100.00;95412.63;5090503;28;20241;-71
2021/09/20 04:59:37;;;;;;;1999.90;999.90;;;;;;;13.67;100.00;95408.28;5090662;28;20238;-70
2021/09/20 05:02:05;;;;;;;1999.90;999.90;;;;;;;13.70;100.00;95422.56;5090330;28;20294;-70
2021/09/20 05:04:32;;;;;;;1999.90;999.90;;;;;;;13.70;100.00;95425.94;5090449;28;20583;-71
2021/09/20 05:07:00;;;;;;;1999.90;999.90;;;;;;;13.77;100.00;95431.44;5090728;28;20275;-70
2021/09/20 05:09:27;;;;;;;1999.90;999.90;;;;;;;13.85;100.00;95429.13;5090755;28;20686;-70
2021/09/20 05:11:55;;;;;;;1999.90;999.90;;;;;;;13.92;100.00;95445.06;5090774;28;20337;-71
2021/09/20 05:14:22;;;;;;;1999.90;999.90;;;;;;;13.88;100.00;95433.72;5090649;28;20214;-70
2021/09/20 05:16:50;;;;;;;1999.90;999.90;;;;;;;13.93;100.00;95438.75;5090164;28;20200;-70
2021/09/20 05:19:18;;;;;;;1999.90;999.90;;;;;;;13.93;100.00;95446.59;5090199;28;20259;-70
2021/09/20 05:21:45;;;;;;;1999.90;999.90;;;;;;;14.00;100.00;95446.84;5090162;28;20200;-71
2021/09/20 05:24:14;;;;;;;1999.90;999.90;;;;;;;13.97;100.00;95450.09;5090106;28;20214;-71
2021/09/20 05:26:41;;;;;;;1999.90;999.90;;;;;;;14.00;100.00;95454.69;5090221;28;20240;-69
2021/09/20 05:29:08;;;;;;;1999.90;999.90;;;;;;;14.03;100.00;95459.31;5090061;28;20199;-70
2021/09/20 05:31:35;;;;;;;1999.90;999.90;;;;;;;14.10;100.00;95455.09;5089926;28;20198;-70
2021/09/20 05:34:03;;;;;;;1999.90;999.90;;;;;;;14.16;100.00;95451.22;5089568;28;20285;-70
2021/09/20 05:36:30;;;;;;;1999.90;999.90;;;;;;;14.00;100.00;95454.69;5090192;28;20294;-68
2021/09/20 05:38:57;;;;;;;1999.90;999.90;;;;;;;14.01;100.00;95451.00;5105470;28;20726;-70
2021/09/20 05:41:26;;;;;;;1999.90;999.90;;;;;;;14.05;100.00;95444.81;5110742;28;20203;-68
2021/09/20 05:43:53;;;;;;;1999.90;999.90;;;;;;;14.04;100.00;95453.75;5110137;28;20682;-70
2021/09/20 05:46:20;;;;;;;1999.90;999.90;;;;;;;14.28;100.00;95442.72;5110195;28;20289;-70
2021/09/20 05:48:47;;;;;;;1999.90;999.90;;;;;;;14.43;100.00;95439.56;5110463;28;20202;-72
2021/09/20 05:51:16;;;;;;;1999.90;999.90;;;;;;;14.66;100.00;95442.63;5110224;28;20693;-70
2021/09/20 05:53:43;;;;;;;1999.90;999.90;;;;;;;14.82;100.00;95437.56;5110365;28;20199;-70
2021/09/20 05:56:12;;;;;;;1999.90;999.90;;;;;;;14.93;100.00;95447.31;5109978;28;20191;-71
2021/09/20 05:58:41;;;;;;;1999.90;999.90;;;;;;;15.06;100.00;95440.28;5110011;28;20223;-70
2021/09/20 06:01:08;;;;;;;1999.90;999.90;;;;;;;15.17;100.00;95443.25;5110398;28;20226;-70
2021/09/20 06:03:36;;;;;;;1999.90;999.90;;;;;;;15.22;100.00;95449.06;5109891;28;20220;-70
2021/09/20 06:06:03;;;;;;;1999.90;999.90;;;;;;;15.24;100.00;95454.72;5109887;28;20260;-70
2021/09/20 06:08:31;;;;;;;1999.90;999.90;;;;;;;15.22;100.00;95454.28;5110168;28;20691;-70
2021/09/20 06:10:58;;;;;;;1999.90;999.90;;;;;;;15.26;100.00;95447.31;5110141;28;20206;-69
2021/09/20 06:13:25;;;;;;;1999.90;999.90;;;;;;;15.38;100.00;95436.88;5109943;28;20749;-70
2021/09/20 06:15:54;;;;;;;1999.90;999.90;;;;;;;15.54;100.00;95436.28;5109989;28;20202;-71
2021/09/20 06:18:22;;;;;;;1999.90;999.90;;;;;;;15.68;100.00;95434.09;5109875;28;20669;-70
2021/09/20 06:20:49;;;;;;;1999.90;999.90;;;;;;;15.81;100.00;95422.53;5110316;28;20226;-70
2021/09/20 06:23:16;;;;;;;1999.90;999.90;;;;;;;15.61;100.00;95418.16;5110518;28;20205;-70
2021/09/20 06:25:43;;;;;;;1999.90;999.90;;;;;;;15.60;100.00;95434.97;5109833;28;20234;-70
2021/09/20 06:28:10;;;;;;;1999.90;999.90;;;;;;;15.63;100.00;95442.94;5112261;28;20203;-70
2021/09/20 06:30:38;;;;;;;1999.90;999.90;;;;;;;15.70;100.00;95450.25;5111895;28;20238;-70
2021/09/20 06:33:06;;;;;;;1999.90;999.90;;;;;;;15.81;100.00;95439.03;5109903;28;20667;-70
2021/09/20 06:35:34;;;;;;;1999.90;999.90;;;;;;;16.04;100.00;95426.22;5109978;28;20191;-71
2021/09/20 06:38:01;;;;;;;1999.90;999.90;;;;;;;16.15;100.00;95432.56;5102194;28;20296;-70
2021/09/20 06:40:29;;;;;;;1999.90;999.90;;;;;;;16.20;100.00;95428.94;5106529;28;20245;-70
2021/09/20 06:42:56;;;;;;;1999.90;999.90;;;;;;;16.16;100.00;95436.72;5109758;28;20209;-70
2021/09/20 06:45:23;;;;;;;1999.90;999.90;;;;;;;16.11;100.00;95436.94;5109992;28;20202;-69
2021/09/20 06:47:51;;;;;;;1999.90;999.90;;;;;;;15.87;100.00;95442.97;5113501;28;20199;-70
2021/09/20 06:50:19;;;;;;;1999.90;999.90;;;;;;;15.77;100.00;95453.09;5113316;27;20195;-70
2021/09/20 06:52:47;;;;;;;1999.90;999.90;;;;;;;15.67;100.00;95469.25;5113753;27;20217;-70
2021/09/20 06:55:15;;;;;;;1999.90;999.90;;;;;;;15.73;100.00;95462.72;5113374;27;20285;-70
2021/09/20 06:57:42;;;;;;;1999.90;999.90;;;;;;;15.74;100.00;95469.50;5113291;27;20195;-69
2021/09/20 07:00:12;;;;;;;1999.90;999.90;;;;;;;15.86;100.00;95467.63;5113106;28;20242;-70
2021/09/20 07:02:39;;;;;;;1999.90;999.90;;;;;;;15.85;100.00;95454.84;5113639;27;20234;-69
2021/09/20 07:05:08;;;;;;;1999.90;999.90;;;;;;;15.71;100.00;95455.16;5112957;27;20199;-70
2021/09/20 07:07:36;;;;;;;1999.90;999.90;;;;;;;15.76;100.00;95449.72;5113067;28;20667;-70
2021/09/20 07:10:04;;;;;;;1999.90;999.90;;;;;;;15.67;100.00;95458.78;5112909;28;20203;-70
2021/09/20 07:12:31;;;;;;;1999.90;999.90;;;;;;;15.90;100.00;95452.00;5113091;28;20195;-70
2021/09/20 07:14:58;;;;;;;1999.90;999.90;;;;;;;15.93;100.00;95446.13;5112969;28;20199;-71
2021/09/20 07:17:26;;;;;;;1999.90;999.90;;;;;;;15.96;100.00;95450.72;5113024;28;20747;-70
2021/09/20 07:19:53;;;;;;;1999.90;999.90;;;;;;;15.95;100.00;95443.94;5113071;28;20223;-70
2021/09/20 07:22:20;;;;;;;1999.90;999.90;;;;;;;16.04;100.00;95457.69;5113155;28;20194;-71
2021/09/20 07:24:49;;;;;;;1999.90;999.90;;;;;;;16.16;100.00;95462.16;5112274;28;20199;-71
2021/09/20 07:27:16;;;;;;;1999.90;999.90;;;;;;;16.25;100.00;95449.69;5112575;28;20590;-70
2021/09/20 07:29:43;;;;;;;1999.90;999.90;;;;;;;16.07;100.00;95457.03;5112700;28;20248;-70
2021/09/20 07:32:10;;;;;;;1999.90;999.90;;;;;;;16.07;100.00;95451.03;5112879;28;20203;-71
2021/09/20 07:34:38;;;;;;;1999.90;999.90;;;;;;;16.21;100.00;95454.84;5112865;27;20199;-70
2021/09/20 07:37:05;;;;;;;1999.90;999.90;;;;;;;16.41;100.00;95441.91;5112727;28;20199;-71
2021/09/20 07:39:33;;;;;;;1999.90;999.90;;;;;;;16.52;100.00;95441.16;5092418;28;20284;-71
2021/09/20 07:42:02;;;;;;;1999.90;999.90;;;;;;;16.52;100.00;95445.63;5091974;28;20560;-71
2021/09/20 07:44:29;;;;;;;1999.90;999.90;;;;;;;16.57;100.00;95433.03;5092435;28;20199;-71
2021/09/20 07:46:56;;;;;;;1999.90;999.90;;;;;;;16.72;100.00;95440.25;5091971;28;20681;-71
2021/09/20 07:49:23;;;;;;;1999.90;999.90;;;;;;;16.77;100.00;95439.25;5091932;28;20271;-71
2021/09/20 07:51:50;;;;;;;1999.90;999.90;;;;;;;16.87;100.00;95440.63;5092196;28;20269;-71
2021/09/20 07:54:18;;;;;;;1999.90;999.90;;;;;;;16.97;100.00;95430.41;5091973;28;20229;-71
2021/09/20 07:56:45;;;;;;;1999.90;999.90;;;;;;;17.04;100.00;95420.09;5091663;28;20634;-71
2021/09/20 07:59:13;;;;;;;1999.90;999.90;;;;;;;17.17;100.00;95424.19;5091683;28;20260;-70
2021/09/20 08:01:40;;;;;;;1999.90;999.90;;;;;;;17.23;100.00;95424.72;5092009;28;20191;-71
2021/09/20 08:04:08;;;;;;;1999.90;999.90;;;;;;;17.20;100.00;95423.50;5091622;28;20244;-70
2021/09/20 08:06:35;;;;;;;1999.90;999.90;;;;;;;17.34;100.00;95423.09;5091872;28;20689;-69
2021/09/20 08:09:02;;;;;;;1999.90;999.90;;;;;;;17.40;100.00;95421.75;5091688;28;20196;-72
2021/09/20 08:11:30;;;;;;;1999.90;999.90;;;;;;;17.32;100.00;95416.66;5091809;28;20204;-71
2021/09/20 08:13:57;;;;;;;1999.90;999.90;;;;;;;17.46;100.00;95420.41;5091632;28;20332;-72
2021/09/20 08:16:25;;;;;;;1999.90;999.90;;;;;;;17.53;100.00;95425.81;5091351;28;20188;-71
2021/09/20 08:18:52;;;;;;;1999.90;999.90;;;;;;;17.68;100.00;95421.72;5091672;28;20195;-71
2021/09/20 08:21:20;;;;;;;1999.90;999.90;;;;;;;17.76;100.00;95417.38;5091393;28;20223;-72
2021/09/20 08:23:47;;;;;;;1999.90;999.90;;;;;;;17.79;100.00;95427.97;5091107;28;20200;-72
2021/09/20 08:26:14;;;;;;;1999.90;999.90;;;;;;;17.82;100.00;95419.44;5091029;28;20296;-72
2021/09/20 08:28:41;;;;;;;1999.90;999.90;;;;;;;17.80;100.00;95419.00;5091163;28;20686;-71
2021/09/20 08:31:08;;;;;;;1999.90;999.90;;;;;;;17.80;100.00;95413.75;5091935;28;20557;-72
2021/09/20 08:33:37;;;;;;;1999.90;999.90;;;;;;;17.85;100.00;95410.84;5092485;28;20203;-72
2021/09/20 08:36:05;;;;;;;1999.90;999.90;;;;;;;17.85;100.00;95400.34;5092749;28;20662;-71
2021/09/20 08:38:32;;;;;;;1999.90;999.90;;;;;;;18.24;100.00;95390.66;5107317;28;20191;-71
2021/09/20 08:40:59;;;;;;;1999.90;999.90;;;;;;;18.42;100.00;95393.69;5111036;28;20219;-70
2021/09/20 08:43:27;;;;;;;1999.90;999.90;;;;;;;18.53;100.00;95404.41;5111173;28;20681;-71
2021/09/20 08:45:56;;;;;;;1999.90;999.90;;;;;;;18.34;100.00;95400.66;5111138;28;20199;-71
2021/09/20 08:48:23;;;;;;;1999.90;999.90;;;;;;;18.68;100.00;95398.34;5111271;28;20191;-71
2021/09/20 08:50:52;;;;;;;1999.90;999.90;;;;;;;18.94;99.42;95398.47;5111128;28;20735;-72
2021/09/20 08:53:19;;;;;;;1999.90;999.90;;;;;;;18.88;98.90;95391.94;5111041;28;20583;-72
2021/09/20 08:55:47;;;;;;;1999.90;999.90;;;;;;;18.88;100.00;95386.69;5110811;28;20199;-72
2021/09/20 08:58:14;;;;;;;1999.90;999.90;;;;;;;19.11;99.17;95384.09;5111333;28;20575;-72
2021/09/20 09:00:41;;;;;;;1999.90;999.90;;;;;;;19.15;98.67;95377.78;5111103;28;20226;-71
2021/09/20 09:03:09;;;;;;;1999.90;999.90;;;;;;;19.52;98.67;95372.78;5111061;28;20632;-72
2021/09/20 09:05:37;;;;;;;1999.90;999.90;;;;;;;19.54;97.49;95373.19;5111252;28;20666;-72
2021/09/20 09:08:09;;;;;;;1999.90;999.90;;;;;;;19.28;97.07;95370.44;5110491;28;20206;-71
2021/09/20 09:10:38;;;;;;;1999.90;999.90;;;;;;;19.33;98.09;95378.84;5110741;28;20211;-72
2021/09/20 09:13:06;;;;;;;1999.90;999.90;;;;;;;19.45;96.05;95372.66;5110549;28;20317;-71
2021/09/20 09:15:35;;;;;;;1999.90;999.90;;;;;;;19.45;94.30;95370.03;5110796;28;20777;-71
2021/09/20 09:18:04;;;;;;;1999.90;999.90;;;;;;;19.52;95.20;95372.78;5111753;28;20222;-71
2021/09/20 09:20:33;;;;;;;1999.90;999.90;;;;;;;19.80;95.58;95374.31;5112782;28;20223;-71
2021/09/20 09:23:03;;;;;;;1999.90;999.90;;;;;;;20.01;92.52;95374.63;5111621;28;20248;-69
2021/09/20 09:25:38;;;;;;;1999.90;999.90;;;;;;;20.11;92.34;95363.47;5110065;28;20262;-71
2021/09/20 09:28:16;;;;;;;1999.90;999.90;;;;;;;20.27;91.76;95361.41;5110777;28;20679;-71
2021/09/20 09:30:45;;;;;;;1999.90;999.90;;;;;;;20.45;92.31;95361.66;5110825;28;20567;-71
2021/09/20 09:33:15;;;;;;;1999.90;999.90;;;;;;;20.73;89.50;95359.34;5110558;28;20203;-71
2021/09/20 09:35:46;;;;;;;1999.90;999.90;;;;;;;20.89;87.81;95356.47;5110479;28;20285;-72
2021/09/20 09:38:14;;;;;;;1999.90;999.90;;;;;;;21.10;90.75;95366.50;5100900;28;20194;-71
2021/09/20 09:40:53;;;;;;;1999.90;999.90;;;;;;;21.16;87.07;95360.56;5089786;28;20699;-71
2021/09/20 09:43:25;;;;;;;1999.90;999.90;;;;;;;21.48;84.85;95360.81;5089975;28;20184;-70
2021/09/20 09:45:54;;;;;;;1999.90;999.90;;;;;;;21.69;86.82;95362.88;5090203;28;20298;-70
2021/09/20 09:48:24;;;;;;;1999.90;999.90;;;;;;;21.90;83.70;95363.78;5089765;28;20587;-70
2021/09/20 09:50:53;;;;;;;1999.90;999.90;;;;;;;22.17;80.52;95361.69;5089906;28;20271;-71
2021/09/20 09:53:33;;;;;;;1999.90;999.90;;;;;;;22.50;81.07;95359.97;5089813;28;20282;-72
2021/09/20 09:56:15;;;;;;;1999.90;999.90;;;;;;;22.71;77.71;95360.09;5089912;28;20191;-71
2021/09/20 09:58:52;;;;;;;1999.90;999.90;;;;;;;22.88;73.86;95353.28;5089657;28;20188;-71
2021/09/20 10:01:21;;;;;;;1999.90;999.90;;;;;;;22.92;71.92;95349.53;5089889;28;20208;-70
2021/09/20 10:04:09;;;;;;;1999.90;999.90;;;;;;;22.97;73.04;95343.84;5091309;28;20239;-71
2021/09/20 10:06:58;;;;;;;1999.90;999.90;;;;;;;23.26;74.84;95338.59;5091470;28;20267;-69
2021/09/20 10:09:28;;;;;;;1999.90;999.90;;;;;;;23.08;72.38;95336.69;5086233;28;20195;-70
2021/09/20 10:11:58;;;;;;;1999.90;999.90;;;;;;;23.30;72.07;95331.41;5090019;28;20575;-69
2021/09/20 10:14:27;;;;;;;1999.90;999.90;;;;;;;23.59;71.60;95328.41;5090088;28;20196;-70
2021/09/20 10:16:56;;;;;;;1999.90;999.90;;;;;;;23.73;70.70;95332.91;5089438;28;20196;-70
2021/09/20 10:19:24;;;;;;;1999.90;999.90;;;;;;;23.85;71.16;95327.22;5089801;28;20196;-71
2021/09/20 10:21:52;;;;;;;1999.90;999.90;;;;;;;24.08;69.19;95326.03;5093375;28;20227;-70
2021/09/20 10:24:19;;;;;;;1999.90;999.90;;;;;;;24.27;68.03;95315.00;5093644;28;20210;-70
2021/09/20 10:26:47;;;;;;;1999.90;999.90;;;;;;;24.30;68.80;95306.28;5093340;28;20235;-70
2021/09/20 10:29:18;;;;;;;1999.90;999.90;;;;;;;24.21;69.62;95313.91;5093453;28;20196;-70
2021/09/20 10:31:49;;;;;;;1999.90;999.90;;;;;;;24.18;71.31;95304.03;5093274;28;20211;-70
2021/09/20 10:34:26;;;;;;;1999.90;999.90;;;;;;;24.59;67.21;95305.00;5093489;28;20639;-69
2021/09/20 10:36:59;;;;;;;1999.90;999.90;;;;;;;24.94;66.22;95300.66;5103411;28;20196;-70
2021/09/20 10:39:54;;;;;;;1999.90;999.90;;;;;;;25.24;66.38;95298.16;5113032;28;20272;-71
2021/09/20 10:43:00;;;;;;;1999.90;999.90;;;;;;;25.55;64.26;95283.09;5111789;28;20195;-70
2021/09/20 10:45:53;;;;;;;1999.90;999.90;;;;;;;25.38;65.75;95282.06;5113541;28;20218;-70
2021/09/20 10:48:27;;;;;;;1999.90;999.90;;;;;;;25.55;66.71;95275.88;5113748;28;20210;-71
2021/09/20 10:50:57;;;;;;;1999.90;999.90;;;;;;;25.60;66.07;95278.09;5113365;28;20179;-70
2021/09/20 10:53:32;;;;;;;1999.90;999.90;;;;;;;25.59;67.18;95270.50;5113631;28;20237;-70